Whyteleafe, United Kingdom
Current Conditions -  °F | °C
As of 6:50 AM on Tuesday 21 Oct 2014 (Local Time) from EGKK Reporting Station
Light Rain Light Rain  
Wind Chill: 57°   Ceiling: 900
Heat Index: 57°   Visibility: 6mi
Dew Point: 54°   Wind: 14mph
Humidity: 88%   Direction: 220°SW
Pressure: 29.62"   Gusts: 26mph
Location:  51.31°N, 0.08°W
Report Text: EGKK 210550Z 22012G23KT 9999 -RA BKN009 OVC013 14/12 Q1003
Loading
Personal Weather Stations






























Interactive Weather Map New forecast layout! Learn more

10-Day Weather Forecast

Advertisements
Track Severe Weather on mobile